Time;durP1;ratioP1;P1;durP2;ratioP2;P2;SDS_P1;SDS_P2;PMS_P1;PMS_P2;Temp;Humidity;BMP_temperature;BMP_pressure;BME280_temperature;BME280_humidity;BME280_pressure;Samples;Min_cycle;Max_cycle;Signal;HPM_P1;HPM_P2
2023/03/30 00:02:08;;;;;;;8.07;3.92;;;;;;;12.79;75.85;100570.72;4946341;28;20146;-62
2023/03/30 00:04:33;;;;;;;8.80;4.05;;;;;;;12.82;75.68;100549.84;4948063;28;20039;-62
2023/03/30 00:06:59;;;;;;;7.75;3.20;;;;;;;12.85;75.56;100555.13;4947510;28;20443;-68
2023/03/30 00:09:29;;;;;;;9.35;3.55;;;;;;;12.88;75.17;100549.91;4946965;28;20034;-68
2023/03/30 00:11:55;;;;;;;7.65;3.45;;;;;;;12.91;74.81;100546.44;4947275;28;20068;-68
2023/03/30 00:14:22;;;;;;;8.35;3.35;;;;;;;12.93;74.53;100536.88;4946944;28;20085;-68
2023/03/30 00:16:47;;;;;;;6.43;3.28;;;;;;;12.92;74.55;100525.53;4946856;28;20027;-68
2023/03/30 00:19:12;;;;;;;7.95;3.42;;;;;;;12.90;74.94;100531.63;4947334;28;20031;-67
2023/03/30 00:21:38;;;;;;;6.53;3.40;;;;;;;12.86;74.61;100528.06;4946304;28;20388;-68
2023/03/30 00:24:03;;;;;;;5.90;3.17;;;;;;;12.80;74.88;100528.03;4945799;28;20403;-68
2023/03/30 00:26:28;;;;;;;5.80;3.13;;;;;;;12.77;74.89;100531.47;4946484;28;20089;-68
2023/03/30 00:28:54;;;;;;;8.40;3.58;;;;;;;12.75;75.26;100516.69;4946980;28;20058;-68
2023/03/30 00:31:19;;;;;;;7.65;3.60;;;;;;;12.75;75.52;100527.13;4948243;28;20502;-68
2023/03/30 00:33:45;;;;;;;7.50;3.50;;;;;;;12.72;75.89;100525.34;4946689;28;20023;-68
2023/03/30 00:36:10;;;;;;;6.90;3.35;;;;;;;12.70;75.48;100530.56;4947732;28;20027;-68
2023/03/30 00:38:35;;;;;;;7.85;3.47;;;;;;;12.69;75.17;100515.75;4946719;28;20455;-68
2023/03/30 00:41:01;;;;;;;7.38;3.60;;;;;;;12.70;74.93;100509.66;4947835;28;20023;-68
2023/03/30 00:43:27;;;;;;;9.05;3.65;;;;;;;12.70;75.08;100504.44;4946166;28;20039;-68
2023/03/30 00:45:55;;;;;;;6.85;3.45;;;;;;;12.69;75.21;100501.81;4944510;28;20482;-68
2023/03/30 00:48:22;;;;;;;5.97;3.42;;;;;;;12.66;74.78;100502.66;4947633;28;20489;-68
2023/03/30 00:51:08;;;;;;;7.50;3.17;;;;;;;12.66;75.50;100497.41;4947588;28;20031;-67
2023/03/30 00:53:38;;;;;;;7.70;3.08;;;;;;;12.59;75.43;100485.16;4944888;28;20451;-68
2023/03/30 00:56:06;;;;;;;9.20;3.15;;;;;;;12.56;74.86;100486.84;4946175;28;20027;-68
2023/03/30 00:58:33;;;;;;;5.53;2.88;;;;;;;12.55;75.02;100478.13;4947525;28;20042;-68
2023/03/30 01:01:01;;;;;;;7.10;2.90;;;;;;;12.54;75.08;100465.91;4947106;28;20039;-68
2023/03/30 01:03:32;;;;;;;4.68;2.85;;;;;;;12.53;75.25;100480.75;4929364;28;20042;-68
2023/03/30 01:06:00;;;;;;;6.35;2.88;;;;;;;12.52;75.36;100475.50;4946814;28;20497;-68
2023/03/30 01:08:36;;;;;;;6.18;3.20;;;;;;;12.47;75.86;100477.19;4945532;28;20046;-68
2023/03/30 01:11:03;;;;;;;7.70;3.30;;;;;;;12.47;75.90;100471.94;4930219;28;20038;-68
2023/03/30 01:13:31;;;;;;;8.18;3.25;;;;;;;12.48;75.80;100474.59;4948311;28;20757;-68
2023/03/30 01:16:37;;;;;;;7.05;3.22;;;;;;;12.47;76.65;100466.72;4948996;28;20561;-68
2023/03/30 01:19:42;;;;;;;8.73;3.25;;;;;;;12.43;76.44;100472.81;4862001;28;20043;-67
2023/03/30 01:22:33;;;;;;;7.60;3.17;;;;;;;12.37;76.54;100480.56;4947618;28;20045;-68
2023/03/30 01:25:39;;;;;;;6.38;3.17;;;;;;;12.32;76.75;100486.59;4947798;28;20038;-68
2023/03/30 01:28:24;;;;;;;6.85;3.15;;;;;;;12.27;76.69;100477.88;4948515;28;20486;-68
2023/03/30 01:31:16;;;;;;;6.82;2.97;;;;;;;12.23;76.94;100481.28;4948246;28;20023;-68
2023/03/30 01:34:27;;;;;;;7.30;3.25;;;;;;;12.21;77.35;100483.03;4948820;28;20023;-69
2023/03/30 01:37:16;;;;;;;6.57;3.17;;;;;;;12.16;77.67;100472.50;4947436;28;20651;-68
2023/03/30 01:40:19;;;;;;;7.28;3.05;;;;;;;12.16;77.87;100474.25;4947138;28;20521;-67
2023/03/30 01:43:31;;;;;;;6.95;2.95;;;;;;;12.21;77.90;100456.00;4948386;28;20105;-68
2023/03/30 01:46:02;;;;;;;8.45;2.88;;;;;;;12.29;77.27;100454.38;4935691;28;20071;-68
2023/03/30 01:48:45;;;;;;;6.35;2.80;;;;;;;12.37;77.17;100451.81;4945010;28;20027;-68
2023/03/30 01:51:22;;;;;;;8.52;2.97;;;;;;;12.45;76.72;100445.81;4945715;28;20035;-69
2023/03/30 01:54:00;;;;;;;7.72;2.72;;;;;;;12.58;76.26;100448.56;4946025;28;20049;-68
2023/03/30 01:56:37;;;;;;;7.65;2.47;;;;;;;12.76;75.32;100456.56;4946113;28;20043;-69
2023/03/30 01:59:15;;;;;;;5.00;2.40;;;;;;;12.88;75.11;100471.47;4947360;28;20043;-68
2023/03/30 02:01:41;;;;;;;5.50;2.08;;;;;;;12.93;74.70;100476.72;4947266;28;20078;-68
2023/03/30 02:04:10;;;;;;;9.23;2.33;;;;;;;12.91;74.77;100474.09;4945621;28;20027;-68
2023/03/30 02:06:45;;;;;;;7.05;2.67;;;;;;;12.88;74.57;100472.31;4946138;28;20129;-63
2023/03/30 02:09:14;;;;;;;7.03;2.55;;;;;;;12.95;74.17;100473.25;4945516;28;20039;-63
2023/03/30 02:11:45;;;;;;;6.22;2.50;;;;;;;12.97;74.18;100476.75;4947039;28;20031;-62
2023/03/30 02:14:14;;;;;;;7.50;2.92;;;;;;;12.99;74.02;100479.38;4945352;28;20055;-62
2023/03/30 02:16:47;;;;;;;8.80;2.63;;;;;;;13.02;74.12;100476.78;4948566;28;20062;-63
2023/03/30 02:19:12;;;;;;;5.82;2.65;;;;;;;13.03;74.29;100473.31;4950198;28;20043;-62
2023/03/30 02:21:38;;;;;;;5.90;2.40;;;;;;;13.00;74.49;100462.81;4950507;28;20054;-63
2023/03/30 02:24:07;;;;;;;7.10;2.67;;;;;;;12.94;74.83;100461.03;4949225;28;20031;-62
2023/03/30 02:26:34;;;;;;;5.43;2.60;;;;;;;12.91;74.98;100461.03;4949564;28;20867;-62
2023/03/30 02:28:59;;;;;;;6.25;3.03;;;;;;;12.86;74.95;100462.72;4950139;28;20027;-62
2023/03/30 02:31:25;;;;;;;6.10;2.70;;;;;;;12.82;75.39;100453.97;4932787;28;20090;-62
2023/03/30 02:34:27;;;;;;;6.18;2.70;;;;;;;12.80;75.84;100468.78;4947708;28;20035;-62
2023/03/30 02:37:16;;;;;;;8.95;2.83;;;;;;;12.80;75.97;100467.91;4949901;28;20046;-63
2023/03/30 02:40:11;;;;;;;5.65;2.53;;;;;;;12.76;75.86;100451.31;4950292;28;20035;-62
2023/03/30 02:42:45;;;;;;;6.63;2.58;;;;;;;12.75;75.82;100454.78;4949751;28;20027;-62
2023/03/30 02:45:42;;;;;;;8.25;3.03;;;;;;;12.76;76.37;100458.28;4949299;28;20027;-62
2023/03/30 02:48:35;;;;;;;5.90;2.70;;;;;;;12.72;76.31;100461.75;4948288;28;20122;-62
2023/03/30 02:51:16;;;;;;;5.95;2.92;;;;;;;12.71;76.41;100458.25;4946792;28;20159;-62
2023/03/30 02:54:16;;;;;;;5.80;2.70;;;;;;;12.73;76.55;100460.88;4947413;28;20089;-62
2023/03/30 02:56:53;;;;;;;7.93;2.78;;;;;;;12.73;75.87;100453.03;4948288;28;20054;-62
2023/03/30 02:59:25;;;;;;;6.45;2.60;;;;;;;12.73;76.28;100463.47;4949443;28;20106;-63
2023/03/30 03:02:16;;;;;;;8.32;2.50;;;;;;;12.75;76.21;100453.94;4948881;28;20043;-62
2023/03/30 03:04:45;;;;;;;8.93;3.00;;;;;;;12.79;75.75;100447.84;4932120;28;20039;-62
2023/03/30 03:07:11;;;;;;;5.40;2.30;;;;;;;12.80;75.60;100447.88;4948821;28;20398;-62
2023/03/30 03:09:37;;;;;;;7.55;2.80;;;;;;;12.83;75.68;100441.78;4949582;28;20050;-62
2023/03/30 03:12:03;;;;;;;8.38;3.00;;;;;;;12.86;75.40;100441.78;4950232;28;20037;-62
2023/03/30 03:14:29;;;;;;;7.22;2.33;;;;;;;12.88;75.46;100445.31;4948757;28;20037;-62
2023/03/30 03:16:54;;;;;;;5.97;2.47;;;;;;;12.91;75.20;100439.25;4948953;28;20031;-62
2023/03/30 03:19:20;;;;;;;7.35;2.55;;;;;;;12.94;75.23;100454.94;4948445;28;20039;-62
2023/03/30 03:21:45;;;;;;;6.00;2.45;;;;;;;12.94;74.95;100442.72;4949412;28;20031;-62
2023/03/30 03:24:12;;;;;;;5.55;2.30;;;;;;;12.98;75.06;100444.50;4950091;28;20022;-62
2023/03/30 03:26:38;;;;;;;5.47;2.50;;;;;;;12.98;74.93;100439.28;4949029;28;20026;-63
2023/03/30 03:29:04;;;;;;;6.18;2.35;;;;;;;12.99;74.89;100440.16;4948297;28;20327;-62
2023/03/30 03:31:29;;;;;;;5.40;2.42;;;;;;;12.98;75.08;100434.06;4949743;28;20032;-63
2023/03/30 03:33:55;;;;;;;5.00;2.30;;;;;;;12.96;74.93;100446.25;4950232;28;20027;-62
2023/03/30 03:36:21;;;;;;;4.75;2.40;;;;;;;12.95;75.46;100438.41;4950426;28;20031;-63
2023/03/30 03:38:46;;;;;;;6.35;2.50;;;;;;;12.94;75.40;100439.25;4950186;28;20046;-62
2023/03/30 03:41:12;;;;;;;6.10;2.55;;;;;;;12.91;75.16;100434.88;4948156;28;20031;-62
2023/03/30 03:43:37;;;;;;;6.07;2.45;;;;;;;12.91;75.24;100432.25;4948665;28;20110;-62
2023/03/30 03:46:03;;;;;;;6.78;2.50;;;;;;;12.91;75.21;100426.16;4948290;28;20033;-62
2023/03/30 03:48:28;;;;;;;5.18;2.30;;;;;;;12.91;75.11;100429.63;4948899;28;20031;-63
2023/03/30 03:50:56;;;;;;;6.15;2.40;;;;;;;12.94;74.25;100434.03;4946920;28;20027;-62
2023/03/30 03:53:23;;;;;;;6.25;2.40;;;;;;;12.94;74.61;100432.28;4947262;28;20027;-62
2023/03/30 03:55:49;;;;;;;5.03;2.10;;;;;;;12.94;74.36;100424.44;4946956;28;20061;-62
2023/03/30 03:58:16;;;;;;;5.50;2.10;;;;;;;12.94;74.58;100427.03;4948672;28;20066;-62
2023/03/30 04:00:41;;;;;;;7.65;2.55;;;;;;;12.96;73.80;100421.81;4945088;28;20043;-63
2023/03/30 04:03:07;;;;;;;6.88;2.42;;;;;;;12.98;73.50;100426.22;4947756;28;20038;-62
2023/03/30 04:05:33;;;;;;;7.30;2.60;;;;;;;13.02;73.80;100427.97;4948173;28;20041;-62
2023/03/30 04:07:59;;;;;;;7.75;2.47;;;;;;;13.02;73.56;100422.75;4947434;28;20027;-62
2023/03/30 04:10:24;;;;;;;6.93;2.33;;;;;;;13.02;73.10;100414.91;4945189;28;21314;-62
2023/03/30 04:12:49;;;;;;;6.13;2.42;;;;;;;13.03;74.13;100414.06;4947387;28;20460;-62
2023/03/30 04:15:15;;;;;;;4.90;2.05;;;;;;;13.04;74.40;100420.16;4948476;28;20542;-62
2023/03/30 04:17:40;;;;;;;5.75;2.30;;;;;;;13.01;74.62;100415.75;4948985;28;20110;-62
2023/03/30 04:20:10;;;;;;;4.63;2.10;;;;;;;12.98;74.79;100420.13;4947730;28;20046;-63
2023/03/30 04:22:36;;;;;;;7.63;2.83;;;;;;;12.95;75.04;100409.63;4946702;28;20030;-62
2023/03/30 04:25:05;;;;;;;5.40;2.28;;;;;;;12.89;75.43;100402.63;4948404;28;20046;-62
2023/03/30 04:27:31;;;;;;;6.35;2.50;;;;;;;12.83;75.96;100405.16;4948692;28;20032;-62
2023/03/30 04:29:56;;;;;;;5.53;2.40;;;;;;;12.79;76.45;100406.91;4930665;28;20159;-63
2023/03/30 04:32:22;;;;;;;7.18;2.70;;;;;;;12.76;76.54;100408.59;4945918;28;20030;-63
2023/03/30 04:34:53;;;;;;;7.10;2.83;;;;;;;12.72;76.72;100393.78;4947628;28;20503;-62
2023/03/30 04:37:28;;;;;;;6.57;2.80;;;;;;;12.69;76.65;100385.03;4945658;28;20499;-62
2023/03/30 04:39:56;;;;;;;5.90;2.70;;;;;;;12.66;76.81;100390.25;4946155;28;20031;-63
2023/03/30 04:42:29;;;;;;;5.38;2.45;;;;;;;12.62;77.24;100398.06;4948098;28;20110;-62
2023/03/30 04:44:58;;;;;;;6.95;2.50;;;;;;;12.59;76.75;100388.44;4947150;28;20034;-62
2023/03/30 04:47:26;;;;;;;6.30;2.80;;;;;;;12.56;77.17;100385.81;4947352;28;20031;-62
2023/03/30 04:49:52;;;;;;;5.95;2.88;;;;;;;12.53;77.03;100393.63;4946856;28;20058;-62
2023/03/30 04:52:18;;;;;;;5.85;2.63;;;;;;;12.50;77.65;100386.63;4946454;28;20101;-62
2023/03/30 04:54:43;;;;;;;6.72;2.42;;;;;;;12.47;77.33;100385.72;4947652;28;20038;-62
2023/03/30 04:57:09;;;;;;;7.43;2.90;;;;;;;12.45;77.88;100387.47;4945380;28;20097;-62
2023/03/30 04:59:35;;;;;;;8.35;2.70;;;;;;;12.41;77.72;100385.66;4945528;28;20229;-62
2023/03/30 05:02:02;;;;;;;7.45;2.65;;;;;;;12.38;78.24;100396.09;4947030;28;20406;-62
2023/03/30 05:04:27;;;;;;;6.03;2.80;;;;;;;12.34;78.24;100396.06;4947635;28;20035;-62
2023/03/30 05:06:52;;;;;;;6.43;2.70;;;;;;;12.33;78.53;100404.78;4946160;28;20600;-62
2023/03/30 05:09:18;;;;;;;7.93;3.00;;;;;;;12.31;78.92;100414.34;4946319;28;20074;-62
2023/03/30 05:11:43;;;;;;;8.98;2.88;;;;;;;12.25;81.44;100429.97;4948346;28;20027;-62
2023/03/30 05:14:08;;;;;;;6.63;3.00;;;;;;;12.16;83.18;100437.69;4948326;28;20430;-62
2023/03/30 05:16:33;;;;;;;7.78;3.30;;;;;;;12.07;86.21;100437.59;4947181;28;20070;-63
2023/03/30 05:18:59;;;;;;;7.45;3.42;;;;;;;11.97;87.72;100434.00;4947828;28;20027;-63
2023/03/30 05:21:24;;;;;;;8.55;3.60;;;;;;;11.91;88.74;100436.53;4948814;28;20554;-62
2023/03/30 05:23:49;;;;;;;7.78;3.50;;;;;;;11.83;89.60;100445.13;4946879;28;20027;-63
2023/03/30 05:26:15;;;;;;;9.70;3.70;;;;;;;11.77;91.05;100450.25;4948971;28;20035;-62
2023/03/30 05:28:41;;;;;;;8.90;3.78;;;;;;;11.71;92.55;100451.94;4948702;28;20039;-63
2023/03/30 05:31:07;;;;;;;8.95;3.85;;;;;;;11.64;93.32;100446.66;4947069;28;20243;-63
2023/03/30 05:33:32;;;;;;;7.30;3.70;;;;;;;11.58;94.69;100454.38;4946561;28;20649;-62
2023/03/30 05:35:57;;;;;;;8.80;4.05;;;;;;;11.53;95.21;100471.72;4947535;28;20023;-62
2023/03/30 05:38:23;;;;;;;11.30;4.15;;;;;;;11.44;96.05;100466.34;4946540;28;20035;-62
2023/03/30 05:40:52;;;;;;;7.20;3.80;;;;;;;11.38;96.89;100463.66;4947085;28;20121;-62
2023/03/30 05:43:18;;;;;;;11.20;3.80;;;;;;;11.31;97.29;100462.69;4947823;28;20107;-62
2023/03/30 05:45:43;;;;;;;7.15;3.70;;;;;;;11.25;98.13;100471.34;4948439;28;20035;-63
2023/03/30 05:48:08;;;;;;;8.55;3.72;;;;;;;11.22;98.41;100473.88;4948182;28;20031;-63
2023/03/30 05:50:34;;;;;;;7.85;4.63;;;;;;;11.18;99.11;100466.88;4950274;28;20550;-63
2023/03/30 05:52:59;;;;;;;8.82;4.30;;;;;;;11.14;99.34;100465.94;4950404;28;20498;-62
2023/03/30 05:55:26;;;;;;;9.60;4.13;;;;;;;11.12;99.62;100453.72;4950977;28;20023;-63
2023/03/30 05:57:52;;;;;;;11.48;4.00;;;;;;;11.11;99.66;100458.06;4946733;28;20035;-62
2023/03/30 06:00:19;;;;;;;8.40;3.58;;;;;;;11.10;99.67;100465.88;4948858;28;20117;-62
2023/03/30 06:02:45;;;;;;;7.57;3.08;;;;;;;11.05;100.00;100468.44;4950800;28;20109;-62
2023/03/30 06:07:44;;;;;;;9.05;3.60;;;;;;;11.00;100.00;100484.84;5074585;23;20332;-70
2023/03/30 06:12:40;;;;;;;9.23;4.00;;;;;;;10.97;100.00;100480.44;5141536;23;20421;-63
2023/03/30 06:15:07;;;;;;;8.20;3.92;;;;;;;10.95;100.00;100477.81;4951693;28;20029;-68
2023/03/30 06:17:33;;;;;;;8.18;3.80;;;;;;;10.94;100.00;100485.63;4967470;28;20589;-68
2023/03/30 06:19:59;;;;;;;8.52;3.78;;;;;;;10.95;100.00;100487.38;4969168;28;20080;-68
2023/03/30 06:22:24;;;;;;;11.05;3.70;;;;;;;10.98;100.00;100491.75;4969234;28;20027;-68
2023/03/30 06:24:49;;;;;;;13.25;4.88;;;;;;;11.00;99.85;100488.31;4969422;28;20593;-68
2023/03/30 06:27:15;;;;;;;10.93;3.88;;;;;;;11.02;99.81;100484.03;4970417;28;20031;-68
2023/03/30 06:29:40;;;;;;;11.32;3.80;;;;;;;11.04;99.95;100491.88;4970856;28;20027;-67
2023/03/30 06:32:06;;;;;;;9.63;4.45;;;;;;;11.05;100.00;100493.59;4945994;28;20039;-67
2023/03/30 06:34:31;;;;;;;11.48;4.35;;;;;;;11.07;100.00;100497.13;4971383;28;20486;-68
2023/03/30 06:36:56;;;;;;;9.80;4.03;;;;;;;11.07;100.00;100498.00;4951116;28;20026;-68
2023/03/30 06:39:22;;;;;;;9.52;3.95;;;;;;;11.06;99.97;100508.41;4970371;28;20118;-68
2023/03/30 06:41:47;;;;;;;12.55;4.25;;;;;;;11.03;100.00;100496.19;4970169;28;20121;-67
2023/03/30 06:44:16;;;;;;;9.77;3.55;;;;;;;11.00;100.00;100503.97;4953071;28;20034;-67
2023/03/30 06:46:42;;;;;;;15.20;4.15;;;;;;;11.00;100.00;100505.69;4968644;28;20093;-67
2023/03/30 06:49:07;;;;;;;11.13;4.57;;;;;;;11.02;100.00;100501.38;4969525;28;20483;-67
2023/03/30 06:51:34;;;;;;;10.93;4.20;;;;;;;11.02;100.00;100509.19;4970050;28;20553;-67
2023/03/30 06:54:00;;;;;;;10.40;4.07;;;;;;;11.04;100.00;100499.69;4952673;28;21049;-67
2023/03/30 06:56:26;;;;;;;8.55;4.13;;;;;;;11.06;100.00;100511.88;4967549;28;20031;-67
2023/03/30 06:58:51;;;;;;;12.18;3.92;;;;;;;11.09;100.00;100504.13;4951994;28;20401;-68
2023/03/30 07:01:17;;;;;;;10.48;3.78;;;;;;;11.17;100.00;100498.16;4967436;28;20512;-68
2023/03/30 07:03:43;;;;;;;12.40;3.50;;;;;;;11.24;100.00;100500.88;4967449;28;20085;-68
2023/03/30 07:06:09;;;;;;;11.05;3.38;;;;;;;11.30;99.65;100506.16;4967483;28;20085;-69
2023/03/30 07:08:34;;;;;;;10.43;2.92;;;;;;;11.38;99.37;100511.50;4969213;28;20038;-70
2023/03/30 07:11:01;;;;;;;11.43;3.30;;;;;;;11.46;99.16;100509.03;4968334;28;20027;-69
2023/03/30 07:13:26;;;;;;;13.30;3.53;;;;;;;11.56;98.81;100499.59;4950585;28;20177;-69
2023/03/30 07:15:52;;;;;;;11.23;3.42;;;;;;;11.62;98.09;100520.56;4948927;28;20081;-69
2023/03/30 07:18:17;;;;;;;12.48;3.35;;;;;;;11.65;97.23;100518.84;4950423;28;20034;-69
2023/03/30 07:20:44;;;;;;;9.65;2.80;;;;;;;11.71;96.60;100511.97;4947932;28;20019;-69
2023/03/30 07:23:10;;;;;;;8.00;2.78;;;;;;;11.75;96.26;100508.56;4946809;28;20063;-69
2023/03/30 07:25:36;;;;;;;10.85;2.70;;;;;;;11.83;96.88;100518.22;4945192;28;20070;-69
2023/03/30 07:28:03;;;;;;;11.27;3.15;;;;;;;11.96;95.44;100518.41;4949622;28;20142;-69
2023/03/30 07:30:28;;;;;;;9.80;2.92;;;;;;;12.08;95.15;100523.78;4949045;28;20121;-69
2023/03/30 07:32:53;;;;;;;9.15;2.65;;;;;;;12.15;95.04;100522.13;4948305;28;20546;-69
2023/03/30 07:35:19;;;;;;;12.93;3.00;;;;;;;12.20;94.07;100514.34;4948482;28;20035;-69
2023/03/30 07:37:44;;;;;;;12.77;3.13;;;;;;;12.20;92.64;100516.97;4949626;28;20035;-69
2023/03/30 07:42:43;;;;;;;14.30;3.35;;;;;;;12.22;92.67;100523.06;4994233;23;20085;-69
2023/03/30 07:45:09;;;;;;;10.57;2.72;;;;;;;12.22;92.21;100533.53;4967370;28;20030;-69
2023/03/30 07:47:35;;;;;;;9.18;2.78;;;;;;;12.19;92.24;100542.19;4969534;28;20085;-69
2023/03/30 07:50:00;;;;;;;11.93;2.88;;;;;;;12.18;92.19;100545.69;4951911;28;20433;-64
2023/03/30 07:52:26;;;;;;;12.63;2.85;;;;;;;12.20;93.02;100540.47;4967439;28;20038;-64
2023/03/30 07:54:53;;;;;;;14.77;3.05;;;;;;;12.22;92.62;100541.38;4966982;28;20034;-64
2023/03/30 07:57:19;;;;;;;10.27;2.88;;;;;;;12.23;92.18;100546.59;4949365;28;20026;-64
2023/03/30 07:59:45;;;;;;;13.40;3.20;;;;;;;12.25;92.32;100551.84;4949056;28;20039;-64
2023/03/30 08:02:13;;;;;;;13.68;2.92;;;;;;;12.26;92.19;100553.59;4966147;28;20045;-64
2023/03/30 08:04:39;;;;;;;13.68;3.28;;;;;;;12.29;92.48;100548.41;5070969;23;20067;-69
2023/03/30 08:07:04;;;;;;;14.15;3.40;;;;;;;12.30;92.17;100561.50;4958283;28;20565;-68
2023/03/30 08:09:30;;;;;;;12.05;2.80;;;;;;;12.33;91.60;100565.88;4957086;28;20117;-68
2023/03/30 08:11:56;;;;;;;16.38;3.17;;;;;;;12.37;92.58;100566.78;4958237;28;20387;-68
2023/03/30 08:14:22;;;;;;;14.27;3.58;;;;;;;12.42;90.87;100563.38;4957714;28;20045;-68
2023/03/30 08:16:48;;;;;;;10.40;3.40;;;;;;;12.46;90.95;100567.78;4955694;28;20475;-68
2023/03/30 08:19:13;;;;;;;12.85;3.33;;;;;;;12.51;90.37;100565.19;4955776;28;20034;-68
2023/03/30 08:21:39;;;;;;;12.73;3.75;;;;;;;12.51;89.88;100570.44;4958147;28;20031;-69
2023/03/30 08:24:04;;;;;;;10.75;3.20;;;;;;;12.52;88.78;100582.66;4957926;28;20332;-68
2023/03/30 08:26:30;;;;;;;12.25;3.40;;;;;;;12.48;89.03;100575.63;4957641;28;20410;-69
2023/03/30 08:28:56;;;;;;;16.00;3.70;;;;;;;12.46;87.49;100573.00;4957738;28;20391;-68
2023/03/30 08:31:22;;;;;;;16.05;4.82;;;;;;;12.45;86.68;100575.59;4957680;28;20034;-68
2023/03/30 08:33:48;;;;;;;15.32;3.42;;;;;;;12.45;86.10;100583.44;4957229;28;20031;-68
2023/03/30 08:36:14;;;;;;;14.05;3.63;;;;;;;12.42;84.65;100563.38;4955720;28;20037;-68
2023/03/30 08:38:40;;;;;;;18.95;3.97;;;;;;;12.45;84.67;100575.59;4955964;28;20035;-69
2023/03/30 08:41:26;;;;;;;16.85;3.88;;;;;;;12.48;85.12;100562.56;4954774;28;20126;-69
2023/03/30 08:44:00;;;;;;;13.40;4.13;;;;;;;12.64;84.19;100566.22;4957731;28;20039;-68
2023/03/30 08:46:27;;;;;;;13.70;3.90;;;;;;;12.87;84.91;100571.69;4956229;28;20089;-68
2023/03/30 08:48:58;;;;;;;15.32;3.70;;;;;;;13.09;83.52;100569.25;4948605;28;20042;-68
2023/03/30 08:51:26;;;;;;;16.63;3.75;;;;;;;13.29;82.31;100583.38;4956843;28;20027;-68
2023/03/30 08:53:56;;;;;;;17.48;4.00;;;;;;;13.50;81.43;100581.84;4956448;28;20518;-68
2023/03/30 08:56:36;;;;;;;13.98;3.80;;;;;;;13.70;78.71;100581.97;4948114;28;20042;-69
2023/03/30 08:59:24;;;;;;;17.23;3.70;;;;;;;13.82;80.08;100584.69;4957013;28;20039;-68
2023/03/30 09:02:11;;;;;;;16.08;3.42;;;;;;;13.90;77.97;100582.09;4957770;28;20043;-69
2023/03/30 09:04:55;;;;;;;14.52;3.10;;;;;;;13.97;76.82;100573.41;4957426;28;20031;-68
2023/03/30 09:07:26;;;;;;;13.15;2.88;;;;;;;14.07;76.56;100579.56;4955744;28;20035;-69
2023/03/30 09:09:52;;;;;;;13.57;3.10;;;;;;;14.22;76.52;100566.56;4937078;28;21008;-68
2023/03/30 09:12:36;;;;;;;13.63;3.20;;;;;;;14.20;75.08;100562.16;4958277;28;20170;-68
2023/03/30 09:15:20;;;;;;;14.43;3.53;;;;;;;13.97;75.00;100581.25;4957558;28;20030;-68
2023/03/30 09:17:59;;;;;;;13.35;3.28;;;;;;;13.89;75.41;100590.84;4957739;28;20031;-68
2023/03/30 09:20:28;;;;;;;11.13;3.70;;;;;;;13.80;74.78;100596.00;4956497;28;20031;-68
2023/03/30 09:22:57;;;;;;;17.70;4.28;;;;;;;13.72;76.39;100594.22;4952761;28;20520;-69
2023/03/30 09:25:48;;;;;;;14.20;3.40;;;;;;;13.65;75.79;100600.28;4958573;28;20039;-68
2023/03/30 09:28:28;;;;;;;17.00;4.85;;;;;;;13.55;75.91;100606.31;4961559;28;20135;-68
2023/03/30 09:31:01;;;;;;;14.27;4.00;;;;;;;13.47;76.88;100618.44;4961691;28;20037;-68
2023/03/30 09:33:50;;;;;;;19.77;4.80;;;;;;;13.41;77.48;100605.31;4961526;28;20038;-68
2023/03/30 09:36:24;;;;;;;13.73;4.85;;;;;;;13.51;75.10;100604.53;4960843;28;20034;-68
2023/03/30 09:38:51;;;;;;;19.77;4.82;;;;;;;13.63;77.32;100609.88;4956220;28;20055;-68
2023/03/30 09:42:06;;;;;;;16.02;4.90;;;;;;;13.67;74.88;100616.88;4961062;28;20031;-68
2023/03/30 09:44:39;;;;;;;19.55;4.85;;;;;;;13.84;74.19;100623.97;4892471;29;20546;-68
2023/03/30 09:47:27;;;;;;;16.30;4.63;;;;;;;14.01;74.55;100624.94;4892210;29;20168;-68
2023/03/30 09:50:00;;;;;;;19.48;4.57;;;;;;;14.12;73.44;100617.16;4942489;28;20155;-68
2023/03/30 09:52:30;;;;;;;20.63;5.63;;;;;;;14.19;73.25;100621.56;4943398;28;20033;-68
2023/03/30 09:55:01;;;;;;;13.70;4.43;;;;;;;14.12;71.64;100624.13;4960767;28;20302;-68
2023/03/30 09:57:31;;;;;;;18.85;4.70;;;;;;;14.01;72.15;100630.19;4960815;28;20031;-68
2023/03/30 09:59:58;;;;;;;17.02;5.25;;;;;;;13.92;72.83;100627.53;4961080;28;20059;-68
2023/03/30 10:02:27;;;;;;;13.73;4.80;;;;;;;13.84;72.87;100634.44;4960898;28;20059;-68
2023/03/30 10:04:52;;;;;;;20.10;5.10;;;;;;;13.74;72.84;100641.34;4959435;28;20058;-68
2023/03/30 10:07:29;;;;;;;17.87;4.47;;;;;;;13.66;73.67;100638.69;4959816;28;20289;-68
2023/03/30 10:09:57;;;;;;;18.00;4.50;;;;;;;13.63;75.19;100633.44;4961032;28;20329;-68
2023/03/30 10:12:24;;;;;;;18.17;4.90;;;;;;;13.64;74.25;100640.41;4956235;28;20657;-69
2023/03/30 10:15:00;;;;;;;19.67;5.70;;;;;;;13.67;76.05;100644.78;4960646;28;20037;-68
2023/03/30 10:17:26;;;;;;;18.67;5.22;;;;;;;13.65;74.33;100650.00;4960875;28;20027;-68
2023/03/30 10:19:53;;;;;;;20.17;5.32;;;;;;;13.64;74.80;100642.16;4961057;28;20027;-68
2023/03/30 10:22:23;;;;;;;20.42;5.18;;;;;;;13.66;74.61;100645.69;4959266;28;20022;-68
2023/03/30 10:24:55;;;;;;;14.88;4.97;;;;;;;13.74;74.29;100651.81;4959983;28;20175;-68
2023/03/30 10:27:27;;;;;;;17.15;5.35;;;;;;;13.85;73.81;100647.56;4959578;28;20030;-68
2023/03/30 10:29:52;;;;;;;21.48;5.07;;;;;;;14.07;73.10;100650.31;4960500;28;20585;-68
2023/03/30 10:32:20;;;;;;;19.00;5.13;;;;;;;14.35;73.64;100642.59;4960704;28;20077;-68
2023/03/30 10:34:51;;;;;;;17.10;5.10;;;;;;;14.56;71.37;100642.69;4959270;28;20035;-68
2023/03/30 10:37:29;;;;;;;17.02;5.45;;;;;;;14.48;68.04;100649.63;4958698;28;20043;-68
2023/03/30 10:39:58;;;;;;;14.95;5.10;;;;;;;14.32;69.59;100648.69;4959457;28;20129;-68
2023/03/30 10:42:27;;;;;;;16.67;4.53;;;;;;;14.38;69.55;100638.25;4959957;28;20055;-68
2023/03/30 10:44:55;;;;;;;14.65;5.07;;;;;;;14.51;70.90;100639.19;4959859;28;20035;-68
2023/03/30 10:47:26;;;;;;;16.02;5.28;;;;;;;14.74;71.92;100639.31;4941605;28;20089;-68
2023/03/30 10:50:02;;;;;;;18.40;4.50;;;;;;;15.07;71.90;100644.63;4958348;28;20054;-68
2023/03/30 10:53:06;;;;;;;17.65;4.22;;;;;;;15.26;67.56;100640.28;4958801;28;20043;-68
2023/03/30 10:55:53;;;;;;;14.10;4.75;;;;;;;15.31;67.51;100643.78;4951657;28;20549;-68
2023/03/30 10:58:26;;;;;;;15.90;4.65;;;;;;;15.24;65.00;100642.03;4961037;28;20086;-68
2023/03/30 11:01:10;;;;;;;14.20;5.07;;;;;;;15.19;67.18;100656.88;4960006;28;20471;-68
2023/03/30 11:03:38;;;;;;;17.20;5.53;;;;;;;15.10;66.87;100640.25;4958570;28;20283;-68
2023/03/30 11:06:12;;;;;;;13.98;5.30;;;;;;;15.08;68.77;100636.75;4953711;28;20137;-63
2023/03/30 11:08:58;;;;;;;16.85;4.85;;;;;;;15.05;66.63;100649.88;5137211;23;20067;-96
2023/03/30 11:14:07;;;;;;;19.65;5.07;;;;;;;14.92;69.35;100655.97;5065999;23;20055;-63
2023/03/30 11:16:53;;;;;;;17.00;5.10;;;;;;;15.01;69.28;100645.47;4980937;28;20418;-63
2023/03/30 11:19:23;;;;;;;14.35;5.40;;;;;;;15.22;69.56;100633.25;4982473;28;20038;-63
2023/03/30 11:22:10;;;;;;;16.00;5.43;;;;;;;15.52;68.71;100642.03;4982932;28;20022;-63
2023/03/30 11:24:40;;;;;;;14.88;4.90;;;;;;;15.50;65.58;100644.66;4982138;28;20042;-63
2023/03/30 11:27:16;;;;;;;13.13;4.72;;;;;;;15.29;65.92;100640.25;4980928;28;20042;-64
2023/03/30 11:29:48;;;;;;;12.18;5.10;;;;;;;15.11;67.80;100642.00;4981700;28;20026;-64
2023/03/30 11:32:30;;;;;;;16.77;5.00;;;;;;;14.99;69.13;100642.00;4982042;28;20070;-64
2023/03/30 11:35:18;;;;;;;16.75;5.32;;;;;;;14.90;68.66;100644.56;4983303;28;20034;-63
2023/03/30 11:38:01;;;;;;;14.55;5.20;;;;;;;14.82;67.27;100641.06;4982761;28;20031;-63
2023/03/30 11:40:42;;;;;;;13.80;5.13;;;;;;;14.83;69.05;100640.19;4981808;28;20070;-64
2023/03/30 11:43:10;;;;;;;13.32;4.40;;;;;;;14.90;68.29;100648.09;4981486;28;20018;-63
2023/03/30 11:45:44;;;;;;;15.55;4.75;;;;;;;15.04;67.65;100640.22;4982636;28;20018;-64
2023/03/30 11:48:30;;;;;;;12.88;5.25;;;;;;;15.09;67.47;100643.75;4981847;28;20043;-63
2023/03/30 11:51:29;;;;;;;12.65;4.13;;;;;;;15.24;66.53;100650.75;4981090;28;20339;-63